Time;durP1;ratioP1;P1;durP2;ratioP2;P2;SDS_P1;SDS_P2;PMS_P1;PMS_P2;Temp;Humidity;BMP_temperature;BMP_pressure;BME280_temperature;BME280_humidity;BME280_pressure;Samples;Min_cycle;Max_cycle;Signal;HPM_P1;HPM_P2
2021/07/28 00:00:59;;;;;;;;;;;17.00;99.90;;;;;;6314793;28;20450;-68
2021/07/28 00:04:00;;;;;;;;;;;17.00;99.90;;;;;;6339379;28;20001;-68
2021/07/28 00:07:03;;;;;;;;;;;17.00;99.90;;;;;;6307395;28;19975;-68
2021/07/28 00:10:05;;;;;;;;;;;17.00;99.90;;;;;;6341315;28;20232;-68
2021/07/28 00:13:07;;;;;;;;;;;17.00;99.90;;;;;;6339369;28;19980;-68
2021/07/28 00:16:11;;;;;;;;;;;17.00;99.90;;;;;;6310627;28;20553;-68
2021/07/28 00:19:19;;;;;;;;;;;17.00;99.90;;;;;;6305471;28;20428;-68
2021/07/28 00:25:47;;;;;;;;;;;17.00;99.90;;;;;;6317496;28;19977;-68
2021/07/28 00:29:04;;;;;;;;;;;17.00;99.90;;;;;;6308136;28;19988;-68
2021/07/28 00:32:06;;;;;;;;;;;17.00;99.90;;;;;;6319460;28;19983;-68
2021/07/28 00:35:08;;;;;;;;;;;17.00;99.90;;;;;;6320241;28;19984;-68
2021/07/28 00:38:09;;;;;;;;;;;16.90;99.90;;;;;;6316300;28;20307;-68
2021/07/28 00:41:14;;;;;;;;;;;16.90;99.90;;;;;;6319157;28;19980;-68
2021/07/28 00:44:16;;;;;;;;;;;16.90;99.90;;;;;;6319127;28;19977;-68
2021/07/28 00:47:17;;;;;;;;;;;16.90;99.90;;;;;;6316310;28;20469;-68
2021/07/28 00:50:19;;;;;;;;;;;16.90;99.90;;;;;;6304160;28;20042;-68
2021/07/28 00:53:21;;;;;;;;;;;16.90;99.90;;;;;;6318644;28;19982;-68
2021/07/28 00:56:22;;;;;;;;;;;16.90;99.90;;;;;;6320196;28;20339;-68
2021/07/28 00:59:24;;;;;;;;;;;16.90;99.90;;;;;;6311523;28;19976;-68
2021/07/28 01:02:26;;;;;;;;;;;16.90;99.90;;;;;;6318264;28;19972;-68
2021/07/28 01:05:28;;;;;;;;;;;16.90;99.90;;;;;;6319966;28;19980;-68
2021/07/28 01:08:29;;;;;;;;;;;16.90;99.90;;;;;;6312213;28;20424;-68
2021/07/28 01:11:31;;;;;;;;;;;16.90;99.90;;;;;;6319403;28;19999;-68
2021/07/28 01:14:33;;;;;;;;;;;16.90;99.90;;;;;;6318154;28;20044;-68
2021/07/28 01:17:35;;;;;;;;;;;16.80;99.90;;;;;;6303770;28;20090;-68
2021/07/28 01:20:44;;;;;;;;;;;16.80;99.90;;;;;;6305384;28;20446;-68
2021/07/28 01:23:46;;;;;;;;;;;16.80;99.90;;;;;;6315795;28;20304;-68
2021/07/28 01:26:48;;;;;;;;;;;16.80;99.90;;;;;;6305912;28;19983;-68
2021/07/28 01:29:50;;;;;;;;;;;16.80;99.90;;;;;;6312178;28;20375;-68
2021/07/28 01:32:52;;;;;;;;;;;16.80;99.90;;;;;;6317528;28;19980;-68
2021/07/28 01:35:54;;;;;;;;;;;16.80;99.90;;;;;;6318026;28;20438;-68
2021/07/28 01:38:55;;;;;;;;;;;16.70;99.90;;;;;;6309641;28;19995;-68
2021/07/28 01:41:58;;;;;;;;;;;16.70;99.90;;;;;;6306596;28;19976;-68
2021/07/28 01:44:59;;;;;;;;;;;16.70;99.90;;;;;;6319338;28;19953;-68
2021/07/28 01:48:01;;;;;;;;;;;16.60;99.90;;;;;;6311702;28;19980;-68
2021/07/28 01:51:03;;;;;;;;;;;16.60;99.90;;;;;;6299180;28;20407;-68
2021/07/28 01:54:04;;;;;;;;;;;16.60;99.90;;;;;;6317749;28;20284;-68
2021/07/28 01:57:07;;;;;;;;;;;16.60;99.90;;;;;;6303201;28;19980;-68
2021/07/28 02:00:09;;;;;;;;;;;16.60;99.90;;;;;;6315657;28;19972;-68
2021/07/28 02:03:11;;;;;;;;;;;16.60;99.90;;;;;;6317343;28;20022;-68
2021/07/28 02:06:12;;;;;;;;;;;16.60;99.90;;;;;;6318873;28;20065;-68
2021/07/28 02:09:14;;;;;;;;;;;16.60;99.90;;;;;;6313509;28;19992;-68
2021/07/28 02:12:41;;;;;;;;;;;16.50;99.90;;;;;;6316439;28;19976;-68
2021/07/28 02:15:43;;;;;;;;;;;16.50;99.90;;;;;;6322250;28;20311;-68
2021/07/28 02:18:44;;;;;;;;;;;16.50;99.90;;;;;;6329677;28;19979;-68
2021/07/28 02:21:46;;;;;;;;;;;16.50;99.90;;;;;;6311326;28;20291;-68
2021/07/28 02:24:47;;;;;;;;;;;16.50;99.90;;;;;;6325389;28;19975;-68
2021/07/28 02:27:50;;;;;;;;;;;16.50;99.90;;;;;;6340693;28;20602;-68
2021/07/28 02:30:51;;;;;;;;;;;16.50;99.90;;;;;;6306985;28;19992;-68
2021/07/28 02:33:53;;;;;;;;;;;16.50;99.90;;;;;;6342778;28;19979;-68
2021/07/28 02:36:55;;;;;;;;;;;16.60;99.90;;;;;;6342604;28;19951;-68
2021/07/28 02:39:56;;;;;;;;;;;16.60;99.90;;;;;;6341823;28;19995;-68
2021/07/28 02:42:58;;;;;;;;;;;16.60;99.90;;;;;;6344813;28;19980;-68
2021/07/28 02:46:00;;;;;;;;;;;16.60;99.90;;;;;;6321694;28;19976;-68
2021/07/28 02:49:01;;;;;;;;;;;16.60;99.90;;;;;;6312488;28;19980;-68
2021/07/28 02:52:03;;;;;;;;;;;16.60;99.90;;;;;;6319422;28;19980;-68
2021/07/28 02:55:06;;;;;;;;;;;16.50;99.90;;;;;;6343496;28;19976;-68
2021/07/28 02:58:07;;;;;;;;;;;16.50;99.90;;;;;;6327308;28;20179;-68
2021/07/28 03:01:09;;;;;;;;;;;16.50;99.90;;;;;;6348243;28;19976;-68
2021/07/28 03:04:11;;;;;;;;;;;16.50;99.90;;;;;;6323588;28;19994;-68
2021/07/28 03:07:13;;;;;;;;;;;16.50;99.90;;;;;;6344008;28;19976;-68
2021/07/28 03:10:14;;;;;;;;;;;16.50;99.90;;;;;;6343036;28;19988;-68
2021/07/28 03:13:16;;;;;;;;;;;16.50;99.90;;;;;;6347217;28;19982;-68
2021/07/28 03:16:18;;;;;;;;;;;16.50;99.90;;;;;;6347764;28;20011;-68
2021/07/28 03:19:19;;;;;;;;;;;16.50;99.90;;;;;;6330532;28;20078;-68
2021/07/28 03:22:21;;;;;;;;;;;16.40;99.90;;;;;;6345309;28;20115;-68
2021/07/28 03:25:23;;;;;;;;;;;16.40;99.90;;;;;;6309890;28;19976;-68
2021/07/28 03:28:24;;;;;;;;;;;16.40;99.90;;;;;;6323796;28;19976;-68
2021/07/28 03:31:26;;;;;;;;;;;16.40;99.90;;;;;;6347085;28;20396;-68
2021/07/28 03:34:27;;;;;;;;;;;16.50;99.90;;;;;;6345902;28;19987;-68
2021/07/28 03:37:29;;;;;;;;;;;16.50;99.90;;;;;;6342458;28;19981;-68
2021/07/28 03:40:32;;;;;;;;;;;16.50;99.90;;;;;;6317606;28;20125;-68
2021/07/28 03:43:33;;;;;;;;;;;16.40;99.90;;;;;;6346068;28;19979;-68
2021/07/28 03:46:35;;;;;;;;;;;16.40;99.90;;;;;;6347227;28;20063;-68
2021/07/28 03:49:56;;;;;;;;;;;16.40;99.90;;;;;;6340501;28;19999;-68
2021/07/28 03:52:59;;;;;;;;;;;16.50;99.90;;;;;;6341764;28;19983;-68
2021/07/28 03:56:01;;;;;;;;;;;16.50;99.90;;;;;;6340271;28;20431;-68
2021/07/28 03:59:03;;;;;;;;;;;16.50;99.90;;;;;;6317111;28;19987;-68
2021/07/28 04:02:05;;;;;;;;;;;16.50;99.90;;;;;;6345666;28;19994;-68
2021/07/28 04:05:07;;;;;;;;;;;16.50;99.90;;;;;;6346385;28;19980;-68
2021/07/28 04:08:09;;;;;;;;;;;16.50;99.90;;;;;;6340374;28;19983;-68
2021/07/28 04:11:11;;;;;;;;;;;16.60;99.90;;;;;;6341853;28;19992;-68
2021/07/28 04:14:12;;;;;;;;;;;16.60;99.90;;;;;;6310549;28;19998;-68
2021/07/28 04:17:14;;;;;;;;;;;16.60;99.90;;;;;;6343840;28;20026;-68
2021/07/28 04:20:16;;;;;;;;;;;16.60;99.90;;;;;;6311361;28;20359;-68
2021/07/28 04:23:17;;;;;;;;;;;16.60;99.90;;;;;;6337716;28;19991;-68
2021/07/28 04:26:19;;;;;;;;;;;16.60;99.90;;;;;;6346293;28;20346;-68
2021/07/28 04:29:21;;;;;;;;;;;16.60;99.90;;;;;;6337920;28;19983;-68
2021/07/28 04:32:23;;;;;;;;;;;16.60;99.90;;;;;;6344308;28;20350;-68
2021/07/28 04:35:24;;;;;;;;;;;16.70;99.90;;;;;;6345914;28;20427;-68
2021/07/28 04:38:26;;;;;;;;;;;16.70;99.90;;;;;;6335357;28;20424;-68
2021/07/28 04:41:28;;;;;;;;;;;16.70;99.90;;;;;;6346471;28;19976;-68
2021/07/28 04:44:30;;;;;;;;;;;16.70;99.90;;;;;;6325639;28;19976;-68
2021/07/28 04:47:31;;;;;;;;;;;16.70;99.90;;;;;;6318979;28;19976;-68
2021/07/28 04:50:33;;;;;;;;;;;16.70;99.90;;;;;;6323065;28;20471;-68
2021/07/28 04:53:35;;;;;;;;;;;16.80;99.90;;;;;;6344405;28;19994;-68
2021/07/28 04:56:37;;;;;;;;;;;16.80;99.90;;;;;;6315818;28;19976;-68
2021/07/28 04:59:38;;;;;;;;;;;16.80;99.90;;;;;;6312281;28;20431;-68
2021/07/28 05:02:40;;;;;;;;;;;16.80;99.90;;;;;;6343890;28;20017;-68
2021/07/28 05:05:42;;;;;;;;;;;16.90;99.90;;;;;;6313272;28;19971;-68
2021/07/28 05:08:43;;;;;;;;;;;16.90;99.90;;;;;;6337530;28;19972;-68
2021/07/28 05:11:45;;;;;;;;;;;16.90;99.90;;;;;;6344369;28;20037;-68
2021/07/28 05:15:00;;;;;;;;;;;16.90;99.90;;;;;;6344798;28;19982;-68
2021/07/28 05:18:02;;;;;;;;;;;16.90;99.90;;;;;;6334151;28;20011;-68
2021/07/28 05:21:03;;;;;;;;;;;17.00;99.90;;;;;;6331339;28;19976;-68
2021/07/28 05:24:05;;;;;;;;;;;17.00;99.90;;;;;;6343486;28;20547;-68
2021/07/28 05:27:06;;;;;;;;;;;17.00;99.90;;;;;;6337196;28;20371;-68
2021/07/28 05:30:08;;;;;;;;;;;17.10;99.90;;;;;;6342417;28;20462;-68
2021/07/28 05:33:10;;;;;;;;;;;17.10;99.90;;;;;;6342725;28;19972;-68
2021/07/28 05:36:12;;;;;;;;;;;17.10;99.90;;;;;;6344692;28;20381;-68
2021/07/28 05:39:13;;;;;;;;;;;17.10;99.90;;;;;;6321814;28;20009;-68
2021/07/28 05:42:15;;;;;;;;;;;17.10;99.90;;;;;;6308640;28;19983;-68
2021/07/28 05:45:16;;;;;;;;;;;17.10;99.90;;;;;;6313214;28;19976;-68
2021/07/28 05:48:18;;;;;;;;;;;17.10;99.90;;;;;;6309091;28;19975;-68
2021/07/28 05:51:20;;;;;;;;;;;17.20;99.90;;;;;;6344118;28;20400;-68
2021/07/28 05:54:21;;;;;;;;;;;17.20;99.90;;;;;;6343223;28;20028;-68
2021/07/28 05:57:23;;;;;;;;;;;17.10;99.90;;;;;;6312785;28;19972;-68
2021/07/28 06:00:26;;;;;;;;;;;17.20;99.90;;;;;;6343215;28;19972;-68
2021/07/28 06:03:27;;;;;;;;;;;17.20;99.90;;;;;;6342245;28;20404;-68
2021/07/28 06:06:29;;;;;;;;;;;17.20;99.90;;;;;;6344301;28;19980;-67
2021/07/28 06:09:31;;;;;;;;;;;17.20;99.90;;;;;;6334601;28;19987;-68
2021/07/28 06:12:32;;;;;;;;;;;17.20;99.90;;;;;;6343083;28;20443;-68
2021/07/28 06:15:34;;;;;;;;;;;17.30;99.90;;;;;;6306580;28;19976;-68
2021/07/28 06:18:36;;;;;;;;;;;17.20;99.90;;;;;;6315862;28;19978;-68
2021/07/28 06:21:37;;;;;;;;;;;17.30;99.90;;;;;;6317197;28;19986;-68
2021/07/28 06:24:39;;;;;;;;;;;17.30;99.90;;;;;;6316494;28;19972;-68
2021/07/28 06:27:40;;;;;;;;;;;17.40;99.90;;;;;;6342606;28;20687;-68
2021/07/28 06:30:42;;;;;;;;;;;17.50;99.90;;;;;;6329711;28;19992;-68
2021/07/28 06:33:44;;;;;;;;;;;17.50;99.90;;;;;;6347090;28;19976;-68
2021/07/28 06:36:45;;;;;;;;;;;17.60;99.90;;;;;;6348310;28;20045;-69
2021/07/28 06:39:47;;;;;;;;;;;17.70;99.90;;;;;;6342561;28;19972;-68
2021/07/28 06:42:49;;;;;;;;;;;17.70;99.90;;;;;;6347437;28;20009;-69
2021/07/28 06:45:56;;;;;;;;;;;17.80;99.90;;;;;;6349014;28;20045;-68
2021/07/28 06:48:58;;;;;;;;;;;17.80;99.90;;;;;;6321932;28;19976;-68
2021/07/28 06:51:59;;;;;;;;;;;17.80;99.90;;;;;;6341895;28;20477;-68
2021/07/28 06:55:01;;;;;;;;;;;17.80;99.90;;;;;;6324337;28;19987;-69
2021/07/28 06:58:03;;;;;;;;;;;17.80;99.90;;;;;;6342759;28;19976;-69
2021/07/28 07:01:07;;;;;;;;;;;17.80;99.90;;;;;;6348654;28;20075;-68
2021/07/28 07:04:09;;;;;;;;;;;17.80;99.90;;;;;;6318200;28;19986;-69
2021/07/28 07:07:10;;;;;;;;;;;17.80;99.90;;;;;;6344710;28;19991;-69
2021/07/28 07:14:15;;;;;;;;;;;18.00;99.90;;;;;;6346195;28;20012;-68
2021/07/28 07:17:17;;;;;;;;;;;18.10;99.90;;;;;;6344762;28;20074;-68
2021/07/28 07:20:19;;;;;;;;;;;18.20;99.90;;;;;;6331940;28;19980;-69
2021/07/28 07:23:20;;;;;;;;;;;18.30;99.90;;;;;;6340318;28;20335;-68
2021/07/28 07:26:22;;;;;;;;;;;18.30;99.90;;;;;;6319297;28;19979;-68
2021/07/28 07:29:23;;;;;;;;;;;18.30;99.90;;;;;;6342521;28;20053;-69
2021/07/28 07:32:29;;;;;;;;;;;18.30;99.90;;;;;;6311282;28;20459;-67
2021/07/28 07:35:31;;;;;;;;;;;18.30;99.90;;;;;;6346746;28;20054;-67
2021/07/28 07:38:32;;;;;;;;;;;18.30;99.90;;;;;;6314062;28;20435;-68
2021/07/28 07:41:34;;;;;;;;;;;18.30;99.90;;;;;;6347322;28;19972;-68
2021/07/28 07:44:36;;;;;;;;;;;18.30;99.90;;;;;;6339220;28;20417;-69
2021/07/28 07:47:37;;;;;;;;;;;18.30;99.90;;;;;;6338724;28;20410;-68
2021/07/28 07:50:39;;;;;;;;;;;18.30;99.90;;;;;;6319470;28;20066;-67
2021/07/28 07:53:43;;;;;;;;;;;18.30;99.90;;;;;;6345672;28;19972;-68
2021/07/28 07:56:44;;;;;;;;;;;18.30;99.90;;;;;;6317785;28;19980;-68
2021/07/28 07:59:46;;;;;;;;;;;18.20;99.90;;;;;;6339633;28;19976;-68
2021/07/28 08:02:47;;;;;;;;;;;18.30;99.90;;;;;;6343429;28;19976;-69
2021/07/28 08:05:49;;;;;;;;;;;18.30;99.90;;;;;;6315602;28;19979;-68
2021/07/28 08:08:51;;;;;;;;;;;18.40;99.90;;;;;;6320198;28;19975;-67
2021/07/28 08:11:54;;;;;;;;;;;18.60;99.90;;;;;;6345635;28;19999;-67
2021/07/28 08:14:55;;;;;;;;;;;18.70;99.90;;;;;;6323093;28;19976;-68
2021/07/28 08:17:57;;;;;;;;;;;18.90;99.90;;;;;;6336522;28;19999;-68
2021/07/28 08:20:59;;;;;;;;;;;19.00;99.90;;;;;;6338225;28;20656;-67
2021/07/28 08:24:01;;;;;;;;;;;19.10;99.90;;;;;;6341857;28;19972;-68
2021/07/28 08:27:03;;;;;;;;;;;19.10;99.90;;;;;;6339153;28;20260;-67
2021/07/28 08:30:05;;;;;;;;;;;19.10;99.90;;;;;;6337220;28;20002;-68
2021/07/28 08:33:06;;;;;;;;;;;19.10;99.90;;;;;;6318229;28;19996;-68
2021/07/28 08:36:08;;;;;;;;;;;19.10;99.90;;;;;;6317760;28;20392;-68
2021/07/28 08:39:10;;;;;;;;;;;19.10;99.90;;;;;;6327314;28;19988;-68
2021/07/28 08:42:12;;;;;;;;;;;19.10;99.90;;;;;;6338414;28;19980;-68
2021/07/28 08:45:14;;;;;;;;;;;19.00;99.90;;;;;;6337913;28;19982;-69
2021/07/28 08:48:17;;;;;;;;;;;19.00;99.90;;;;;;6338748;28;20447;-68
2021/07/28 08:51:19;;;;;;;;;;;19.00;99.90;;;;;;6342100;28;19990;-68
2021/07/28 08:54:20;;;;;;;;;;;19.00;99.90;;;;;;6314040;28;19976;-68
2021/07/28 08:57:22;;;;;;;;;;;19.00;99.90;;;;;;6335362;28;19979;-68
2021/07/28 09:00:24;;;;;;;;;;;19.00;99.90;;;;;;6338925;28;20419;-69
2021/07/28 09:03:26;;;;;;;;;;;19.00;99.90;;;;;;6343727;28;19975;-68
2021/07/28 09:06:28;;;;;;;;;;;19.00;99.90;;;;;;6343737;28;20339;-68
2021/07/28 09:09:30;;;;;;;;;;;18.90;99.90;;;;;;6310334;28;19987;-68
2021/07/28 09:12:35;;;;;;;;;;;18.80;99.90;;;;;;6307725;28;19998;-68
2021/07/28 09:15:37;;;;;;;;;;;18.80;99.90;;;;;;6340196;28;20470;-68
2021/07/28 09:18:40;;;;;;;;;;;18.70;99.90;;;;;;6306779;28;20284;-68
2021/07/28 09:21:41;;;;;;;;;;;18.70;99.90;;;;;;6336085;28;19979;-67
2021/07/28 09:24:44;;;;;;;;;;;18.80;99.90;;;;;;6338619;28;20033;-68
2021/07/28 09:27:47;;;;;;;;;;;18.80;99.90;;;;;;6325576;28;20022;-68
2021/07/28 09:30:48;;;;;;;;;;;18.80;99.90;;;;;;6336608;28;20003;-68
2021/07/28 09:34:05;;;;;;;;;;;18.80;99.90;;;;;;6342241;28;20443;-68
2021/07/28 09:37:13;;;;;;;;;;;18.70;99.90;;;;;;6339737;28;19976;-68
2021/07/28 09:40:22;;;;;;;;;;;18.70;99.90;;;;;;6312290;28;19984;-68
2021/07/28 09:43:24;;;;;;;;;;;18.70;99.90;;;;;;6336272;28;19965;-68
2021/07/28 09:46:29;;;;;;;;;;;18.60;99.90;;;;;;6319723;28;20399;-68
2021/07/28 09:49:30;;;;;;;;;;;18.50;99.90;;;;;;6331184;28;19980;-68
2021/07/28 09:52:35;;;;;;;;;;;18.40;99.90;;;;;;6338770;28;20438;-67
2021/07/28 09:55:43;;;;;;;;;;;18.50;99.90;;;;;;6344139;28;19972;-68
2021/07/28 09:58:44;;;;;;;;;;;18.50;99.90;;;;;;6335406;28;19983;-68
2021/07/28 10:01:47;;;;;;;;;;;18.60;99.90;;;;;;6317844;28;20043;-67
2021/07/28 10:04:50;;;;;;;;;;;18.60;99.90;;;;;;6334601;28;19988;-67
2021/07/28 10:07:56;;;;;;;;;;;18.70;99.90;;;;;;6335163;28;20021;-68
2021/07/28 10:10:57;;;;;;;;;;;18.80;99.90;;;;;;6344780;28;19988;-67
2021/07/28 10:14:00;;;;;;;;;;;18.90;99.90;;;;;;6340686;28;20392;-68
2021/07/28 10:17:02;;;;;;;;;;;18.90;99.90;;;;;;6342156;28;20021;-67
2021/07/28 10:20:05;;;;;;;;;;;18.90;99.90;;;;;;6330730;28;20054;-67
2021/07/28 10:23:07;;;;;;;;;;;18.90;99.90;;;;;;6336784;28;20133;-67
2021/07/28 10:26:10;;;;;;;;;;;18.90;99.90;;;;;;6313602;28;19979;-67
2021/07/28 10:29:14;;;;;;;;;;;19.00;99.90;;;;;;6339448;28;19979;-67
2021/07/28 10:32:28;;;;;;;;;;;19.10;99.90;;;;;;6312169;28;20326;-67
2021/07/28 10:35:30;;;;;;;;;;;19.20;99.90;;;;;;6343851;28;19982;-67
2021/07/28 10:38:48;;;;;;;;;;;19.30;99.90;;;;;;6341081;28;20460;-68
2021/07/28 10:41:50;;;;;;;;;;;19.40;99.90;;;;;;6330786;28;20003;-67
2021/07/28 10:44:57;;;;;;;;;;;19.40;99.90;;;;;;6314179;28;20326;-68
2021/07/28 10:47:59;;;;;;;;;;;19.50;99.90;;;;;;6335649;28;20043;-68
2021/07/28 10:51:00;;;;;;;;;;;19.60;99.90;;;;;;6334990;28;19980;-68
2021/07/28 10:54:02;;;;;;;;;;;19.70;99.90;;;;;;6340154;28;20427;-67
2021/07/28 10:57:04;;;;;;;;;;;19.90;99.90;;;;;;6315478;28;20433;-67
2021/07/28 11:00:07;;;;;;;;;;;20.00;99.90;;;;;;6314158;28;19978;-67
2021/07/28 11:03:09;;;;;;;;;;;20.20;99.90;;;;;;6332112;28;20022;-68
2021/07/28 11:06:15;;;;;;;;;;;20.20;99.90;;;;;;6339857;28;19980;-68
2021/07/28 11:09:18;;;;;;;;;;;20.30;99.90;;;;;;6317882;28;20051;-68
2021/07/28 11:12:26;;;;;;;;;;;20.30;99.90;;;;;;6340187;28;19988;-68
2021/07/28 11:15:28;;;;;;;;;;;20.30;99.90;;;;;;6326417;28;20298;-68
2021/07/28 11:18:41;;;;;;;;;;;20.40;99.90;;;;;;6313404;28;20424;-69
2021/07/28 11:21:42;;;;;;;;;;;20.30;99.90;;;;;;6342507;28;19972;-67
2021/07/28 11:24:54;;;;;;;;;;;20.40;99.90;;;;;;6321562;28;20381;-67
2021/07/28 11:28:05;;;;;;;;;;;20.30;99.90;;;;;;6341826;28;19999;-67
2021/07/28 11:31:10;;;;;;;;;;;20.30;99.90;;;;;;6343004;28;19983;-67
2021/07/28 11:34:16;;;;;;;;;;;20.30;99.90;;;;;;6338329;28;19983;-68
2021/07/28 11:37:20;;;;;;;;;;;20.20;99.90;;;;;;6314124;28;19972;-68
2021/07/28 11:40:21;;;;;;;;;;;20.10;99.90;;;;;;6346255;28;19983;-68
2021/07/28 11:43:30;;;;;;;;;;;20.10;99.90;;;;;;6337091;28;20450;-68
2021/07/28 11:46:32;;;;;;;;;;;20.00;99.90;;;;;;6345818;28;19991;-67
2021/07/28 11:49:33;;;;;;;;;;;20.00;99.90;;;;;;6318583;28;20086;-67
2021/07/28 11:52:47;;;;;;;;;;;20.00;99.90;;;;;;6337169;28;19988;-67
2021/07/28 11:55:49;;;;;;;;;;;20.00;99.90;;;;;;6341846;28;19976;-68
2021/07/28 11:58:51;;;;;;;;;;;20.00;99.90;;;;;;6319188;28;19994;-68
2021/07/28 12:01:54;;;;;;;;;;;20.10;99.90;;;;;;6338710;28;20308;-68
2021/07/28 12:05:02;;;;;;;;;;;20.20;99.90;;;;;;6320805;28;20054;-68
2021/07/28 12:08:04;;;;;;;;;;;20.30;99.90;;;;;;6316880;28;19979;-68
2021/07/28 12:11:07;;;;;;;;;;;20.40;99.90;;;;;;6339686;28;20348;-68
2021/07/28 12:14:08;;;;;;;;;;;20.40;99.90;;;;;;6326499;28;20075;-67
2021/07/28 12:17:13;;;;;;;;;;;20.40;99.90;;;;;;6340900;28;20474;-67
2021/07/28 12:20:15;;;;;;;;;;;20.30;99.90;;;;;;6313483;28;19976;-68
2021/07/28 12:23:22;;;;;;;;;;;20.30;99.90;;;;;;6341759;28;19976;-68
2021/07/28 12:26:43;;;;;;;;;;;20.20;99.90;;;;;;6342363;28;19972;-68
2021/07/28 12:29:55;;;;;;;;;;;20.20;99.90;;;;;;6335324;28;19984;-68
2021/07/28 12:33:09;;;;;;;;;;;20.10;99.90;;;;;;6334457;28;20011;-68
2021/07/28 12:36:11;;;;;;;;;;;20.10;99.90;;;;;;6339378;28;19981;-68
2021/07/28 12:39:14;;;;;;;;;;;20.00;99.90;;;;;;6343230;28;19970;-68
2021/07/28 12:42:15;;;;;;;;;;;19.90;99.90;;;;;;6339121;28;19972;-68
2021/07/28 12:45:17;;;;;;;;;;;19.90;99.90;;;;;;6308760;28;19979;-67
2021/07/28 12:48:19;;;;;;;;;;;19.90;99.90;;;;;;6338203;28;19982;-67
2021/07/28 12:51:23;;;;;;;;;;;20.00;99.90;;;;;;6342847;28;19980;-68
2021/07/28 12:54:25;;;;;;;;;;;20.00;99.90;;;;;;6341166;28;19976;-67
2021/07/28 12:57:46;;;;;;;;;;;20.20;99.90;;;;;;6337528;28;19983;-68
2021/07/28 13:00:48;;;;;;;;;;;20.30;99.90;;;;;;6345847;28;19972;-67
2021/07/28 13:03:54;;;;;;;;;;;20.30;99.90;;;;;;6340706;28;20435;-68
2021/07/28 13:07:06;;;;;;;;;;;20.30;99.90;;;;;;6344231;28;19980;-67
2021/07/28 13:10:08;;;;;;;;;;;20.20;99.90;;;;;;6341007;28;19980;-68
2021/07/28 13:13:10;;;;;;;;;;;20.10;99.90;;;;;;6341140;28;20059;-68
2021/07/28 13:16:11;;;;;;;;;;;20.20;99.90;;;;;;6345797;28;20421;-68
2021/07/28 13:19:13;;;;;;;;;;;20.20;99.90;;;;;;6310442;28;20168;-68
2021/07/28 13:22:15;;;;;;;;;;;20.20;99.90;;;;;;6314663;28;19979;-67
2021/07/28 13:25:16;;;;;;;;;;;20.30;99.90;;;;;;6313298;28;20349;-67
2021/07/28 13:28:18;;;;;;;;;;;20.40;99.90;;;;;;6337511;28;19976;-68
2021/07/28 13:31:20;;;;;;;;;;;20.40;99.90;;;;;;6335180;28;19996;-68
2021/07/28 13:34:23;;;;;;;;;;;20.40;99.90;;;;;;6315291;28;20419;-67
2021/07/28 13:37:25;;;;;;;;;;;20.40;99.90;;;;;;6311702;28;19987;-67
2021/07/28 13:40:26;;;;;;;;;;;20.40;99.90;;;;;;6339205;28;20429;-67
2021/07/28 13:43:28;;;;;;;;;;;20.30;99.90;;;;;;6342643;28;19972;-67
2021/07/28 13:46:30;;;;;;;;;;;20.20;99.90;;;;;;6340604;28;19984;-67
2021/07/28 13:49:32;;;;;;;;;;;20.10;99.90;;;;;;6337134;28;19984;-68
2021/07/28 13:52:34;;;;;;;;;;;20.20;99.90;;;;;;6338721;28;20572;-67
2021/07/28 13:55:35;;;;;;;;;;;20.30;99.90;;;;;;6344309;28;20132;-68
2021/07/28 13:58:37;;;;;;;;;;;20.40;99.90;;;;;;6328349;28;20403;-67
2021/07/28 14:01:39;;;;;;;;;;;20.40;99.90;;;;;;6313966;28;20407;-68
2021/07/28 14:04:41;;;;;;;;;;;20.40;99.90;;;;;;6311171;28;19976;-67
2021/07/28 14:07:43;;;;;;;;;;;20.30;99.90;;;;;;6341434;28;19972;-68
2021/07/28 14:10:45;;;;;;;;;;;20.30;99.90;;;;;;6343379;28;20411;-67
2021/07/28 14:13:46;;;;;;;;;;;20.30;99.90;;;;;;6312447;28;20006;-67
2021/07/28 14:16:48;;;;;;;;;;;20.30;99.90;;;;;;6336632;28;19995;-67
2021/07/28 14:19:50;;;;;;;;;;;20.30;99.90;;;;;;6315557;28;19978;-68
2021/07/28 14:22:51;;;;;;;;;;;20.20;99.90;;;;;;6331054;28;20025;-67
2021/07/28 14:25:53;;;;;;;;;;;20.20;99.90;;;;;;6337597;28;20029;-67
2021/07/28 14:28:55;;;;;;;;;;;20.10;99.90;;;;;;6335601;28;20075;-67
2021/07/28 14:31:56;;;;;;;;;;;19.80;99.90;;;;;;6330871;28;20003;-67
2021/07/28 14:34:58;;;;;;;;;;;19.50;99.90;;;;;;6340148;28;20161;-67
2021/07/28 14:38:00;;;;;;;;;;;19.30;99.90;;;;;;6337690;28;19987;-68
2021/07/28 14:41:01;;;;;;;;;;;19.10;99.90;;;;;;6348289;28;20003;-67
2021/07/28 14:44:03;;;;;;;;;;;19.00;99.90;;;;;;6313907;28;19983;-67
2021/07/28 14:47:10;;;;;;;;;;;19.00;99.90;;;;;;6338185;28;20342;-67
2021/07/28 14:50:12;;;;;;;;;;;18.90;99.90;;;;;;6319106;28;19999;-67
2021/07/28 14:53:13;;;;;;;;;;;18.80;99.90;;;;;;6323390;28;19995;-68
2021/07/28 14:56:15;;;;;;;;;;;18.80;99.90;;;;;;6326812;28;19972;-68
2021/07/28 14:59:17;;;;;;;;;;;18.70;99.90;;;;;;6345611;28;19976;-68
2021/07/28 15:02:19;;;;;;;;;;;18.70;99.90;;;;;;6343010;28;19972;-67
2021/07/28 15:05:21;;;;;;;;;;;18.70;99.90;;;;;;6344104;28;20392;-68
2021/07/28 15:08:22;;;;;;;;;;;18.70;99.90;;;;;;6344281;28;19976;-68
2021/07/28 15:11:24;;;;;;;;;;;18.70;99.90;;;;;;6341530;28;19976;-67
2021/07/28 15:14:25;;;;;;;;;;;18.70;99.90;;;;;;6345889;28;19992;-67
2021/07/28 15:17:27;;;;;;;;;;;18.70;99.90;;;;;;6333945;28;20080;-67
2021/07/28 15:20:29;;;;;;;;;;;18.60;99.90;;;;;;6317788;28;19972;-67
2021/07/28 15:23:31;;;;;;;;;;;18.60;99.90;;;;;;6320113;28;19972;-68
2021/07/28 15:26:33;;;;;;;;;;;18.60;99.90;;;;;;6320162;28;19980;-68
2021/07/28 15:29:35;;;;;;;;;;;18.60;99.90;;;;;;6321890;28;19952;-68
2021/07/28 15:32:37;;;;;;;;;;;18.60;99.90;;;;;;6318530;28;20502;-68
2021/07/28 15:35:38;;;;;;;;;;;18.60;99.90;;;;;;6320971;28;20470;-67
2021/07/28 15:38:59;;;;;;;;;;;18.70;99.90;;;;;;6316044;28;19976;-67
2021/07/28 15:42:00;;;;;;;;;;;18.90;99.90;;;;;;6318086;28;19985;-67
2021/07/28 15:45:02;;;;;;;;;;;18.90;99.90;;;;;;6300988;28;20087;-67
2021/07/28 15:48:04;;;;;;;;;;;18.80;99.90;;;;;;6298077;28;19980;-68
2021/07/28 15:51:06;;;;;;;;;;;18.80;99.90;;;;;;6319865;28;19972;-68
2021/07/28 15:54:08;;;;;;;;;;;18.90;99.90;;;;;;6322105;28;20032;-68
2021/07/28 15:57:09;;;;;;;;;;;19.10;99.90;;;;;;6318331;28;19976;-68
2021/07/28 16:00:11;;;;;;;;;;;19.10;99.90;;;;;;6321102;28;20308;-69
2021/07/28 16:03:13;;;;;;;;;;;19.20;99.90;;;;;;6312850;28;20002;-68
2021/07/28 16:06:15;;;;;;;;;;;19.30;99.90;;;;;;6300824;28;20010;-67
2021/07/28 16:09:16;;;;;;;;;;;19.40;99.90;;;;;;6318456;28;19972;-68
2021/07/28 16:12:18;;;;;;;;;;;19.40;99.90;;;;;;6318216;28;19996;-68
2021/07/28 16:15:27;;;;;;;;;;;19.40;99.90;;;;;;6298469;28;19976;-68
2021/07/28 16:18:49;;;;;;;;;;;19.40;99.90;;;;;;6317774;28;19980;-68
2021/07/28 16:21:52;;;;;;;;;;;19.50;99.90;;;;;;6312319;28;19976;-67
2021/07/28 16:24:56;;;;;;;;;;;19.50;99.90;;;;;;6303553;28;20022;-68
2021/07/28 16:28:02;;;;;;;;;;;19.60;99.90;;;;;;6318042;28;19976;-67
2021/07/28 16:31:04;;;;;;;;;;;19.70;99.90;;;;;;6318556;28;20033;-67
2021/07/28 16:34:05;;;;;;;;;;;19.70;99.90;;;;;;6317084;28;21175;-68
2021/07/28 16:37:07;;;;;;;;;;;19.90;99.90;;;;;;6319476;28;19976;-67
2021/07/28 16:40:09;;;;;;;;;;;20.10;99.90;;;;;;6312728;28;19976;-68
2021/07/28 16:43:11;;;;;;;;;;;20.10;99.90;;;;;;6317550;28;20426;-67
2021/07/28 16:46:16;;;;;;;;;;;20.10;99.90;;;;;;6298828;28;20102;-67
2021/07/28 16:49:18;;;;;;;;;;;19.90;99.90;;;;;;6315735;28;20045;-68
2021/07/28 16:52:19;;;;;;;;;;;19.80;99.90;;;;;;6314624;28;20403;-68
2021/07/28 16:55:21;;;;;;;;;;;19.80;99.90;;;;;;6313374;28;19972;-68
2021/07/28 16:58:23;;;;;;;;;;;19.80;99.90;;;;;;6312376;28;19980;-67
2021/07/28 17:01:25;;;;;;;;;;;19.70;99.90;;;;;;6316615;28;19987;-68
2021/07/28 17:04:26;;;;;;;;;;;19.80;99.90;;;;;;6296784;28;19983;-68
2021/07/28 17:07:28;;;;;;;;;;;19.80;99.90;;;;;;6314319;28;20381;-67
2021/07/28 17:10:31;;;;;;;;;;;19.80;99.90;;;;;;6314932;28;20373;-68
2021/07/28 17:13:33;;;;;;;;;;;19.80;99.90;;;;;;6316172;28;19992;-67
2021/07/28 17:16:35;;;;;;;;;;;19.80;99.90;;;;;;6314807;28;19995;-68
2021/07/28 17:19:38;;;;;;;;;;;19.90;99.90;;;;;;6313521;28;20067;-68
2021/07/28 17:22:39;;;;;;;;;;;19.90;99.90;;;;;;6312588;28;19980;-67
2021/07/28 17:25:43;;;;;;;;;;;19.80;99.90;;;;;;6317035;28;20373;-68
2021/07/28 17:28:44;;;;;;;;;;;19.80;99.90;;;;;;6314171;28;19987;-68
2021/07/28 17:31:46;;;;;;;;;;;19.70;99.90;;;;;;6314372;28;20380;-68
2021/07/28 17:34:51;;;;;;;;;;;19.80;99.90;;;;;;6296273;28;20491;-68
2021/07/28 17:37:53;;;;;;;;;;;19.80;99.90;;;;;;6313564;28;20320;-68
2021/07/28 17:40:56;;;;;;;;;;;19.90;99.90;;;;;;6315246;28;20030;-68
2021/07/28 17:43:57;;;;;;;;;;;19.90;99.90;;;;;;6297967;28;20408;-68
2021/07/28 17:46:59;;;;;;;;;;;20.00;99.90;;;;;;6313197;28;20399;-67
2021/07/28 17:50:01;;;;;;;;;;;20.10;99.90;;;;;;6314198;28;20342;-67